<?xml version="1.0" encoding="UTF-8" standalone="no" ?>
<gpx xmlns="http://www.topografix.com/GPX/1/1" xmlns:xsi="http://www.w3.org/2001/XMLSchema-instance" xsi:schemaLocation="http://www.topografix.com/GPX/1/1 http://www.topografix.com/GPX/1/1/gpx.xsd" version="1.1" creator="VisuGPX - https://www.visugpx.com">
  <metadata>
    <name>Loisirs &amp;amp; Découvertes Journée Téléthon à Celles 24600 (6)</name>
    <desc><![CDATA[Circuit sur la commune de Celles accessible à tous, un peu dur 3 belle montée voir les altitudes]]></desc>
  </metadata>
  <trk>
    <name><![CDATA[Tracé 15 oct. 2016 14:01:49 Celles]]></name>
    <trkseg>
      <trkpt lat="45.29434" lon="0.41058">
        <ele>116</ele>
        <time>2016-10-15T12:01:49Z</time>
      </trkpt>
      <trkpt lat="45.29434" lon="0.4104">
        <ele>103</ele>
        <time>2016-10-15T12:01:59Z</time>
      </trkpt>
      <trkpt lat="45.29434" lon="0.4104">
        <ele>103</ele>
        <time>2016-10-15T12:02:00Z</time>
      </trkpt>
      <trkpt lat="45.29429" lon="0.41039">
        <ele>90</ele>
        <time>2016-10-15T12:02:03Z</time>
      </trkpt>
      <trkpt lat="45.29412" lon="0.41048">
        <ele>90</ele>
        <time>2016-10-15T12:02:42Z</time>
      </trkpt>
      <trkpt lat="45.29388" lon="0.41043">
        <ele>92</ele>
        <time>2016-10-15T12:03:11Z</time>
      </trkpt>
      <trkpt lat="45.29363" lon="0.41065">
        <ele>88</ele>
        <time>2016-10-15T12:03:40Z</time>
      </trkpt>
      <trkpt lat="45.29343" lon="0.41101">
        <ele>87</ele>
        <time>2016-10-15T12:04:09Z</time>
      </trkpt>
      <trkpt lat="45.2932" lon="0.41135">
        <ele>91</ele>
        <time>2016-10-15T12:04:38Z</time>
      </trkpt>
      <trkpt lat="45.29292" lon="0.4117">
        <ele>99</ele>
        <time>2016-10-15T12:05:08Z</time>
      </trkpt>
      <trkpt lat="45.29293" lon="0.41204">
        <ele>103</ele>
        <time>2016-10-15T12:05:38Z</time>
      </trkpt>
      <trkpt lat="45.2932" lon="0.41222">
        <ele>109</ele>
        <time>2016-10-15T12:06:07Z</time>
      </trkpt>
      <trkpt lat="45.29346" lon="0.41257">
        <ele>109</ele>
        <time>2016-10-15T12:06:36Z</time>
      </trkpt>
      <trkpt lat="45.29339" lon="0.41281">
        <ele>111</ele>
        <time>2016-10-15T12:07:10Z</time>
      </trkpt>
      <trkpt lat="45.29316" lon="0.41317">
        <ele>115</ele>
        <time>2016-10-15T12:07:39Z</time>
      </trkpt>
      <trkpt lat="45.29291" lon="0.41349">
        <ele>112</ele>
        <time>2016-10-15T12:08:09Z</time>
      </trkpt>
      <trkpt lat="45.29264" lon="0.41388">
        <ele>118</ele>
        <time>2016-10-15T12:08:39Z</time>
      </trkpt>
      <trkpt lat="45.29242" lon="0.41418">
        <ele>122</ele>
        <time>2016-10-15T12:09:08Z</time>
      </trkpt>
      <trkpt lat="45.29221" lon="0.41463">
        <ele>120</ele>
        <time>2016-10-15T12:09:37Z</time>
      </trkpt>
      <trkpt lat="45.29199" lon="0.41506">
        <ele>119</ele>
        <time>2016-10-15T12:10:07Z</time>
      </trkpt>
      <trkpt lat="45.29187" lon="0.41561">
        <ele>120</ele>
        <time>2016-10-15T12:10:36Z</time>
      </trkpt>
      <trkpt lat="45.29174" lon="0.41614">
        <ele>122</ele>
        <time>2016-10-15T12:11:06Z</time>
      </trkpt>
      <trkpt lat="45.29157" lon="0.4167">
        <ele>123</ele>
        <time>2016-10-15T12:11:36Z</time>
      </trkpt>
      <trkpt lat="45.29134" lon="0.41707">
        <ele>123</ele>
        <time>2016-10-15T12:12:06Z</time>
      </trkpt>
      <trkpt lat="45.29107" lon="0.41745">
        <ele>128</ele>
        <time>2016-10-15T12:12:35Z</time>
      </trkpt>
      <trkpt lat="45.29078" lon="0.41788">
        <ele>129</ele>
        <time>2016-10-15T12:13:05Z</time>
      </trkpt>
      <trkpt lat="45.29051" lon="0.41828">
        <ele>130</ele>
        <time>2016-10-15T12:13:34Z</time>
      </trkpt>
      <trkpt lat="45.29023" lon="0.41868">
        <ele>133</ele>
        <time>2016-10-15T12:14:04Z</time>
      </trkpt>
      <trkpt lat="45.29" lon="0.41905">
        <ele>139</ele>
        <time>2016-10-15T12:14:33Z</time>
      </trkpt>
      <trkpt lat="45.2898" lon="0.41958">
        <ele>133</ele>
        <time>2016-10-15T12:15:02Z</time>
      </trkpt>
      <trkpt lat="45.2897" lon="0.42019">
        <ele>126</ele>
        <time>2016-10-15T12:15:31Z</time>
      </trkpt>
      <trkpt lat="45.28963" lon="0.42073">
        <ele>123</ele>
        <time>2016-10-15T12:16:00Z</time>
      </trkpt>
      <trkpt lat="45.28959" lon="0.42108">
        <ele>139</ele>
        <time>2016-10-15T12:16:29Z</time>
      </trkpt>
      <trkpt lat="45.28946" lon="0.42143">
        <ele>145</ele>
        <time>2016-10-15T12:16:58Z</time>
      </trkpt>
      <trkpt lat="45.28935" lon="0.42186">
        <ele>144</ele>
        <time>2016-10-15T12:17:28Z</time>
      </trkpt>
      <trkpt lat="45.2892" lon="0.42232">
        <ele>142</ele>
        <time>2016-10-15T12:17:57Z</time>
      </trkpt>
      <trkpt lat="45.28915" lon="0.42267">
        <ele>151</ele>
        <time>2016-10-15T12:18:27Z</time>
      </trkpt>
      <trkpt lat="45.28907" lon="0.42309">
        <ele>160</ele>
        <time>2016-10-15T12:18:56Z</time>
      </trkpt>
      <trkpt lat="45.28899" lon="0.42357">
        <ele>160</ele>
        <time>2016-10-15T12:19:25Z</time>
      </trkpt>
      <trkpt lat="45.28886" lon="0.424">
        <ele>163</ele>
        <time>2016-10-15T12:19:54Z</time>
      </trkpt>
      <trkpt lat="45.28871" lon="0.42442">
        <ele>168</ele>
        <time>2016-10-15T12:20:24Z</time>
      </trkpt>
      <trkpt lat="45.28853" lon="0.42486">
        <ele>170</ele>
        <time>2016-10-15T12:20:54Z</time>
      </trkpt>
      <trkpt lat="45.28842" lon="0.42521">
        <ele>168</ele>
        <time>2016-10-15T12:21:23Z</time>
      </trkpt>
      <trkpt lat="45.28856" lon="0.42535">
        <ele>178</ele>
        <time>2016-10-15T12:23:00Z</time>
      </trkpt>
      <trkpt lat="45.28895" lon="0.42546">
        <ele>179</ele>
        <time>2016-10-15T12:23:30Z</time>
      </trkpt>
      <trkpt lat="45.28937" lon="0.42562">
        <ele>176</ele>
        <time>2016-10-15T12:24:00Z</time>
      </trkpt>
      <trkpt lat="45.28966" lon="0.42572">
        <ele>180</ele>
        <time>2016-10-15T12:24:29Z</time>
      </trkpt>
      <trkpt lat="45.29004" lon="0.42575">
        <ele>182</ele>
        <time>2016-10-15T12:24:58Z</time>
      </trkpt>
      <trkpt lat="45.29036" lon="0.42576">
        <ele>185</ele>
        <time>2016-10-15T12:25:27Z</time>
      </trkpt>
      <trkpt lat="45.2908" lon="0.42579">
        <ele>183</ele>
        <time>2016-10-15T12:25:57Z</time>
      </trkpt>
      <trkpt lat="45.29126" lon="0.42584">
        <ele>186</ele>
        <time>2016-10-15T12:26:27Z</time>
      </trkpt>
      <trkpt lat="45.2916" lon="0.42586">
        <ele>187</ele>
        <time>2016-10-15T12:26:56Z</time>
      </trkpt>
      <trkpt lat="45.29197" lon="0.42596">
        <ele>186</ele>
        <time>2016-10-15T12:27:25Z</time>
      </trkpt>
      <trkpt lat="45.29232" lon="0.42607">
        <ele>188</ele>
        <time>2016-10-15T12:27:54Z</time>
      </trkpt>
      <trkpt lat="45.29265" lon="0.42621">
        <ele>188</ele>
        <time>2016-10-15T12:28:23Z</time>
      </trkpt>
      <trkpt lat="45.29298" lon="0.42646">
        <ele>187</ele>
        <time>2016-10-15T12:28:53Z</time>
      </trkpt>
      <trkpt lat="45.29327" lon="0.42679">
        <ele>186</ele>
        <time>2016-10-15T12:29:22Z</time>
      </trkpt>
      <trkpt lat="45.29353" lon="0.42713">
        <ele>181</ele>
        <time>2016-10-15T12:29:52Z</time>
      </trkpt>
      <trkpt lat="45.29373" lon="0.42751">
        <ele>180</ele>
        <time>2016-10-15T12:30:21Z</time>
      </trkpt>
      <trkpt lat="45.29385" lon="0.4278">
        <ele>182</ele>
        <time>2016-10-15T12:30:50Z</time>
      </trkpt>
      <trkpt lat="45.29369" lon="0.42833">
        <ele>179</ele>
        <time>2016-10-15T12:31:20Z</time>
      </trkpt>
      <trkpt lat="45.2935" lon="0.42872">
        <ele>181</ele>
        <time>2016-10-15T12:31:49Z</time>
      </trkpt>
      <trkpt lat="45.29319" lon="0.42887">
        <ele>183</ele>
        <time>2016-10-15T12:32:19Z</time>
      </trkpt>
      <trkpt lat="45.29282" lon="0.42907">
        <ele>180</ele>
        <time>2016-10-15T12:32:48Z</time>
      </trkpt>
      <trkpt lat="45.29248" lon="0.42932">
        <ele>178</ele>
        <time>2016-10-15T12:33:18Z</time>
      </trkpt>
      <trkpt lat="45.29215" lon="0.4295">
        <ele>182</ele>
        <time>2016-10-15T12:33:48Z</time>
      </trkpt>
      <trkpt lat="45.29184" lon="0.42984">
        <ele>177</ele>
        <time>2016-10-15T12:34:17Z</time>
      </trkpt>
      <trkpt lat="45.29148" lon="0.43013">
        <ele>176</ele>
        <time>2016-10-15T12:34:46Z</time>
      </trkpt>
      <trkpt lat="45.29113" lon="0.43036">
        <ele>175</ele>
        <time>2016-10-15T12:35:15Z</time>
      </trkpt>
      <trkpt lat="45.29077" lon="0.43075">
        <ele>170</ele>
        <time>2016-10-15T12:35:44Z</time>
      </trkpt>
      <trkpt lat="45.29043" lon="0.43111">
        <ele>167</ele>
        <time>2016-10-15T12:36:13Z</time>
      </trkpt>
      <trkpt lat="45.29008" lon="0.43146">
        <ele>168</ele>
        <time>2016-10-15T12:36:43Z</time>
      </trkpt>
      <trkpt lat="45.28976" lon="0.43181">
        <ele>164</ele>
        <time>2016-10-15T12:37:13Z</time>
      </trkpt>
      <trkpt lat="45.28964" lon="0.43203">
        <ele>163</ele>
        <time>2016-10-15T12:37:42Z</time>
      </trkpt>
      <trkpt lat="45.28951" lon="0.43217">
        <ele>159</ele>
        <time>2016-10-15T12:38:29Z</time>
      </trkpt>
      <trkpt lat="45.28916" lon="0.43241">
        <ele>163</ele>
        <time>2016-10-15T12:38:58Z</time>
      </trkpt>
      <trkpt lat="45.2889" lon="0.43288">
        <ele>159</ele>
        <time>2016-10-15T12:39:27Z</time>
      </trkpt>
      <trkpt lat="45.28872" lon="0.43336">
        <ele>162</ele>
        <time>2016-10-15T12:39:56Z</time>
      </trkpt>
      <trkpt lat="45.28879" lon="0.43377">
        <ele>156</ele>
        <time>2016-10-15T12:40:26Z</time>
      </trkpt>
      <trkpt lat="45.28881" lon="0.4343">
        <ele>156</ele>
        <time>2016-10-15T12:40:55Z</time>
      </trkpt>
      <trkpt lat="45.28875" lon="0.43463">
        <ele>147</ele>
        <time>2016-10-15T12:41:25Z</time>
      </trkpt>
      <trkpt lat="45.28862" lon="0.43508">
        <ele>141</ele>
        <time>2016-10-15T12:41:55Z</time>
      </trkpt>
      <trkpt lat="45.28855" lon="0.43558">
        <ele>136</ele>
        <time>2016-10-15T12:42:24Z</time>
      </trkpt>
      <trkpt lat="45.28866" lon="0.4361">
        <ele>132</ele>
        <time>2016-10-15T12:42:53Z</time>
      </trkpt>
      <trkpt lat="45.28861" lon="0.43652">
        <ele>132</ele>
        <time>2016-10-15T12:43:22Z</time>
      </trkpt>
      <trkpt lat="45.28848" lon="0.43702">
        <ele>123</ele>
        <time>2016-10-15T12:43:52Z</time>
      </trkpt>
      <trkpt lat="45.28822" lon="0.43735">
        <ele>118</ele>
        <time>2016-10-15T12:44:21Z</time>
      </trkpt>
      <trkpt lat="45.28804" lon="0.43773">
        <ele>116</ele>
        <time>2016-10-15T12:44:51Z</time>
      </trkpt>
      <trkpt lat="45.28787" lon="0.43781">
        <ele>117</ele>
        <time>2016-10-15T12:45:27Z</time>
      </trkpt>
      <trkpt lat="45.28753" lon="0.438">
        <ele>114</ele>
        <time>2016-10-15T12:45:57Z</time>
      </trkpt>
      <trkpt lat="45.28717" lon="0.43828">
        <ele>107</ele>
        <time>2016-10-15T12:46:27Z</time>
      </trkpt>
      <trkpt lat="45.28722" lon="0.43875">
        <ele>103</ele>
        <time>2016-10-15T12:46:56Z</time>
      </trkpt>
      <trkpt lat="45.28735" lon="0.43913">
        <ele>100</ele>
        <time>2016-10-15T12:47:26Z</time>
      </trkpt>
      <trkpt lat="45.28742" lon="0.43949">
        <ele>111</ele>
        <time>2016-10-15T12:47:55Z</time>
      </trkpt>
      <trkpt lat="45.28752" lon="0.43986">
        <ele>115</ele>
        <time>2016-10-15T12:48:24Z</time>
      </trkpt>
      <trkpt lat="45.28763" lon="0.44021">
        <ele>121</ele>
        <time>2016-10-15T12:48:53Z</time>
      </trkpt>
      <trkpt lat="45.28772" lon="0.44055">
        <ele>126</ele>
        <time>2016-10-15T12:49:22Z</time>
      </trkpt>
      <trkpt lat="45.28785" lon="0.4409">
        <ele>129</ele>
        <time>2016-10-15T12:49:52Z</time>
      </trkpt>
      <trkpt lat="45.28814" lon="0.44083">
        <ele>132</ele>
        <time>2016-10-15T12:50:21Z</time>
      </trkpt>
      <trkpt lat="45.28842" lon="0.4409">
        <ele>136</ele>
        <time>2016-10-15T12:50:50Z</time>
      </trkpt>
      <trkpt lat="45.28863" lon="0.44108">
        <ele>140</ele>
        <time>2016-10-15T12:51:20Z</time>
      </trkpt>
      <trkpt lat="45.28874" lon="0.44133">
        <ele>142</ele>
        <time>2016-10-15T12:51:49Z</time>
      </trkpt>
      <trkpt lat="45.2889" lon="0.44126">
        <ele>145</ele>
        <time>2016-10-15T12:52:30Z</time>
      </trkpt>
      <trkpt lat="45.28918" lon="0.44105">
        <ele>147</ele>
        <time>2016-10-15T12:52:59Z</time>
      </trkpt>
      <trkpt lat="45.28951" lon="0.44085">
        <ele>149</ele>
        <time>2016-10-15T12:53:28Z</time>
      </trkpt>
      <trkpt lat="45.28987" lon="0.4407">
        <ele>150</ele>
        <time>2016-10-15T12:53:58Z</time>
      </trkpt>
      <trkpt lat="45.29016" lon="0.44047">
        <ele>153</ele>
        <time>2016-10-15T12:54:27Z</time>
      </trkpt>
      <trkpt lat="45.29049" lon="0.4403">
        <ele>151</ele>
        <time>2016-10-15T12:54:57Z</time>
      </trkpt>
      <trkpt lat="45.29082" lon="0.4403">
        <ele>155</ele>
        <time>2016-10-15T12:55:26Z</time>
      </trkpt>
      <trkpt lat="45.29102" lon="0.4404">
        <ele>157</ele>
        <time>2016-10-15T12:55:56Z</time>
      </trkpt>
      <trkpt lat="45.29115" lon="0.44054">
        <ele>158</ele>
        <time>2016-10-15T12:57:02Z</time>
      </trkpt>
      <trkpt lat="45.29142" lon="0.44088">
        <ele>166</ele>
        <time>2016-10-15T12:57:31Z</time>
      </trkpt>
      <trkpt lat="45.29165" lon="0.44123">
        <ele>167</ele>
        <time>2016-10-15T12:58:01Z</time>
      </trkpt>
      <trkpt lat="45.29204" lon="0.44151">
        <ele>166</ele>
        <time>2016-10-15T12:58:30Z</time>
      </trkpt>
      <trkpt lat="45.29251" lon="0.44156">
        <ele>161</ele>
        <time>2016-10-15T12:59:00Z</time>
      </trkpt>
      <trkpt lat="45.29286" lon="0.44138">
        <ele>168</ele>
        <time>2016-10-15T12:59:30Z</time>
      </trkpt>
      <trkpt lat="45.29311" lon="0.44109">
        <ele>177</ele>
        <time>2016-10-15T12:59:59Z</time>
      </trkpt>
      <trkpt lat="45.29321" lon="0.4408">
        <ele>176</ele>
        <time>2016-10-15T13:00:29Z</time>
      </trkpt>
      <trkpt lat="45.29348" lon="0.44044">
        <ele>179</ele>
        <time>2016-10-15T13:00:58Z</time>
      </trkpt>
      <trkpt lat="45.29378" lon="0.4401">
        <ele>177</ele>
        <time>2016-10-15T13:01:27Z</time>
      </trkpt>
      <trkpt lat="45.29409" lon="0.43991">
        <ele>176</ele>
        <time>2016-10-15T13:01:57Z</time>
      </trkpt>
      <trkpt lat="45.29435" lon="0.43974">
        <ele>181</ele>
        <time>2016-10-15T13:02:26Z</time>
      </trkpt>
      <trkpt lat="45.29462" lon="0.43956">
        <ele>182</ele>
        <time>2016-10-15T13:02:55Z</time>
      </trkpt>
      <trkpt lat="45.29491" lon="0.43944">
        <ele>187</ele>
        <time>2016-10-15T13:03:24Z</time>
      </trkpt>
      <trkpt lat="45.29528" lon="0.43918">
        <ele>189</ele>
        <time>2016-10-15T13:03:54Z</time>
      </trkpt>
      <trkpt lat="45.29562" lon="0.43896">
        <ele>194</ele>
        <time>2016-10-15T13:04:24Z</time>
      </trkpt>
      <trkpt lat="45.29577" lon="0.4388">
        <ele>178</ele>
        <time>2016-10-15T13:05:51Z</time>
      </trkpt>
      <trkpt lat="45.29593" lon="0.43882">
        <ele>189</ele>
        <time>2016-10-15T13:07:24Z</time>
      </trkpt>
      <trkpt lat="45.29609" lon="0.43873">
        <ele>188</ele>
        <time>2016-10-15T13:07:53Z</time>
      </trkpt>
      <trkpt lat="45.29641" lon="0.43861">
        <ele>195</ele>
        <time>2016-10-15T13:08:23Z</time>
      </trkpt>
      <trkpt lat="45.29673" lon="0.43854">
        <ele>194</ele>
        <time>2016-10-15T13:08:52Z</time>
      </trkpt>
      <trkpt lat="45.29703" lon="0.43873">
        <ele>189</ele>
        <time>2016-10-15T13:09:21Z</time>
      </trkpt>
      <trkpt lat="45.29735" lon="0.43889">
        <ele>195</ele>
        <time>2016-10-15T13:09:50Z</time>
      </trkpt>
      <trkpt lat="45.29771" lon="0.43913">
        <ele>194</ele>
        <time>2016-10-15T13:10:19Z</time>
      </trkpt>
      <trkpt lat="45.29801" lon="0.43923">
        <ele>193</ele>
        <time>2016-10-15T13:10:48Z</time>
      </trkpt>
      <trkpt lat="45.29839" lon="0.43948">
        <ele>191</ele>
        <time>2016-10-15T13:11:18Z</time>
      </trkpt>
      <trkpt lat="45.29868" lon="0.43964">
        <ele>201</ele>
        <time>2016-10-15T13:11:47Z</time>
      </trkpt>
      <trkpt lat="45.29896" lon="0.43984">
        <ele>193</ele>
        <time>2016-10-15T13:12:16Z</time>
      </trkpt>
      <trkpt lat="45.2993" lon="0.44009">
        <ele>198</ele>
        <time>2016-10-15T13:12:46Z</time>
      </trkpt>
      <trkpt lat="45.29956" lon="0.44026">
        <ele>197</ele>
        <time>2016-10-15T13:13:16Z</time>
      </trkpt>
      <trkpt lat="45.29971" lon="0.44037">
        <ele>202</ele>
        <time>2016-10-15T13:14:18Z</time>
      </trkpt>
      <trkpt lat="45.29986" lon="0.44067">
        <ele>198</ele>
        <time>2016-10-15T13:14:47Z</time>
      </trkpt>
      <trkpt lat="45.30016" lon="0.44112">
        <ele>197</ele>
        <time>2016-10-15T13:15:16Z</time>
      </trkpt>
      <trkpt lat="45.3005" lon="0.44142">
        <ele>198</ele>
        <time>2016-10-15T13:15:46Z</time>
      </trkpt>
      <trkpt lat="45.3008" lon="0.44166">
        <ele>193</ele>
        <time>2016-10-15T13:16:15Z</time>
      </trkpt>
      <trkpt lat="45.30111" lon="0.44195">
        <ele>194</ele>
        <time>2016-10-15T13:16:45Z</time>
      </trkpt>
      <trkpt lat="45.30143" lon="0.44218">
        <ele>195</ele>
        <time>2016-10-15T13:17:15Z</time>
      </trkpt>
      <trkpt lat="45.30176" lon="0.44246">
        <ele>190</ele>
        <time>2016-10-15T13:17:44Z</time>
      </trkpt>
      <trkpt lat="45.30202" lon="0.44271">
        <ele>193</ele>
        <time>2016-10-15T13:18:14Z</time>
      </trkpt>
      <trkpt lat="45.30231" lon="0.44274">
        <ele>193</ele>
        <time>2016-10-15T13:18:43Z</time>
      </trkpt>
      <trkpt lat="45.30266" lon="0.4429">
        <ele>194</ele>
        <time>2016-10-15T13:19:12Z</time>
      </trkpt>
      <trkpt lat="45.30299" lon="0.44298">
        <ele>196</ele>
        <time>2016-10-15T13:19:42Z</time>
      </trkpt>
      <trkpt lat="45.30329" lon="0.44313">
        <ele>199</ele>
        <time>2016-10-15T13:20:12Z</time>
      </trkpt>
      <trkpt lat="45.30361" lon="0.44337">
        <ele>199</ele>
        <time>2016-10-15T13:20:41Z</time>
      </trkpt>
      <trkpt lat="45.30399" lon="0.44342">
        <ele>203</ele>
        <time>2016-10-15T13:21:10Z</time>
      </trkpt>
      <trkpt lat="45.30434" lon="0.44339">
        <ele>203</ele>
        <time>2016-10-15T13:21:40Z</time>
      </trkpt>
      <trkpt lat="45.30456" lon="0.443">
        <ele>199</ele>
        <time>2016-10-15T13:22:10Z</time>
      </trkpt>
      <trkpt lat="45.30449" lon="0.44277">
        <ele>199</ele>
        <time>2016-10-15T13:28:58Z</time>
      </trkpt>
      <trkpt lat="45.30447" lon="0.44303">
        <ele>202</ele>
        <time>2016-10-15T13:34:42Z</time>
      </trkpt>
      <trkpt lat="45.30462" lon="0.44317">
        <ele>202</ele>
        <time>2016-10-15T13:43:24Z</time>
      </trkpt>
      <trkpt lat="45.30479" lon="0.44323">
        <ele>201</ele>
        <time>2016-10-15T13:46:37Z</time>
      </trkpt>
      <trkpt lat="45.30516" lon="0.44321">
        <ele>196</ele>
        <time>2016-10-15T13:47:06Z</time>
      </trkpt>
      <trkpt lat="45.30549" lon="0.44283">
        <ele>201</ele>
        <time>2016-10-15T13:47:36Z</time>
      </trkpt>
      <trkpt lat="45.30575" lon="0.44254">
        <ele>200</ele>
        <time>2016-10-15T13:48:05Z</time>
      </trkpt>
      <trkpt lat="45.30614" lon="0.44242">
        <ele>194</ele>
        <time>2016-10-15T13:48:35Z</time>
      </trkpt>
      <trkpt lat="45.30653" lon="0.44231">
        <ele>191</ele>
        <time>2016-10-15T13:49:04Z</time>
      </trkpt>
      <trkpt lat="45.30697" lon="0.44231">
        <ele>190</ele>
        <time>2016-10-15T13:49:34Z</time>
      </trkpt>
      <trkpt lat="45.30734" lon="0.44225">
        <ele>192</ele>
        <time>2016-10-15T13:50:03Z</time>
      </trkpt>
      <trkpt lat="45.30774" lon="0.44213">
        <ele>187</ele>
        <time>2016-10-15T13:50:32Z</time>
      </trkpt>
      <trkpt lat="45.30811" lon="0.44194">
        <ele>187</ele>
        <time>2016-10-15T13:51:02Z</time>
      </trkpt>
      <trkpt lat="45.30848" lon="0.44179">
        <ele>188</ele>
        <time>2016-10-15T13:51:31Z</time>
      </trkpt>
      <trkpt lat="45.30888" lon="0.4417">
        <ele>183</ele>
        <time>2016-10-15T13:52:00Z</time>
      </trkpt>
      <trkpt lat="45.30925" lon="0.44136">
        <ele>180</ele>
        <time>2016-10-15T13:52:30Z</time>
      </trkpt>
      <trkpt lat="45.30957" lon="0.4412">
        <ele>188</ele>
        <time>2016-10-15T13:52:59Z</time>
      </trkpt>
      <trkpt lat="45.30993" lon="0.44113">
        <ele>191</ele>
        <time>2016-10-15T13:53:28Z</time>
      </trkpt>
      <trkpt lat="45.31038" lon="0.44092">
        <ele>189</ele>
        <time>2016-10-15T13:53:57Z</time>
      </trkpt>
      <trkpt lat="45.31074" lon="0.44089">
        <ele>188</ele>
        <time>2016-10-15T13:54:26Z</time>
      </trkpt>
      <trkpt lat="45.31113" lon="0.44091">
        <ele>191</ele>
        <time>2016-10-15T13:54:56Z</time>
      </trkpt>
      <trkpt lat="45.31142" lon="0.44069">
        <ele>187</ele>
        <time>2016-10-15T13:55:25Z</time>
      </trkpt>
      <trkpt lat="45.31137" lon="0.44046">
        <ele>188</ele>
        <time>2016-10-15T13:56:30Z</time>
      </trkpt>
      <trkpt lat="45.31128" lon="0.43996">
        <ele>189</ele>
        <time>2016-10-15T13:57:00Z</time>
      </trkpt>
      <trkpt lat="45.31095" lon="0.43951">
        <ele>186</ele>
        <time>2016-10-15T13:57:29Z</time>
      </trkpt>
      <trkpt lat="45.31074" lon="0.43904">
        <ele>183</ele>
        <time>2016-10-15T13:57:58Z</time>
      </trkpt>
      <trkpt lat="45.31041" lon="0.43864">
        <ele>185</ele>
        <time>2016-10-15T13:58:28Z</time>
      </trkpt>
      <trkpt lat="45.31005" lon="0.43843">
        <ele>186</ele>
        <time>2016-10-15T13:58:57Z</time>
      </trkpt>
      <trkpt lat="45.30976" lon="0.43825">
        <ele>183</ele>
        <time>2016-10-15T13:59:27Z</time>
      </trkpt>
      <trkpt lat="45.3094" lon="0.43805">
        <ele>177</ele>
        <time>2016-10-15T13:59:56Z</time>
      </trkpt>
      <trkpt lat="45.30915" lon="0.43779">
        <ele>175</ele>
        <time>2016-10-15T14:00:25Z</time>
      </trkpt>
      <trkpt lat="45.30887" lon="0.43744">
        <ele>174</ele>
        <time>2016-10-15T14:00:54Z</time>
      </trkpt>
      <trkpt lat="45.30843" lon="0.43721">
        <ele>172</ele>
        <time>2016-10-15T14:01:24Z</time>
      </trkpt>
      <trkpt lat="45.30812" lon="0.43684">
        <ele>171</ele>
        <time>2016-10-15T14:01:54Z</time>
      </trkpt>
      <trkpt lat="45.30784" lon="0.43637">
        <ele>170</ele>
        <time>2016-10-15T14:02:24Z</time>
      </trkpt>
      <trkpt lat="45.30761" lon="0.43597">
        <ele>172</ele>
        <time>2016-10-15T14:02:54Z</time>
      </trkpt>
      <trkpt lat="45.30741" lon="0.43561">
        <ele>174</ele>
        <time>2016-10-15T14:03:23Z</time>
      </trkpt>
      <trkpt lat="45.30712" lon="0.43526">
        <ele>179</ele>
        <time>2016-10-15T14:03:52Z</time>
      </trkpt>
      <trkpt lat="45.30669" lon="0.43523">
        <ele>182</ele>
        <time>2016-10-15T14:04:22Z</time>
      </trkpt>
      <trkpt lat="45.30642" lon="0.43481">
        <ele>174</ele>
        <time>2016-10-15T14:04:52Z</time>
      </trkpt>
      <trkpt lat="45.30605" lon="0.43464">
        <ele>181</ele>
        <time>2016-10-15T14:05:21Z</time>
      </trkpt>
      <trkpt lat="45.30569" lon="0.43466">
        <ele>176</ele>
        <time>2016-10-15T14:05:50Z</time>
      </trkpt>
      <trkpt lat="45.30534" lon="0.43471">
        <ele>171</ele>
        <time>2016-10-15T14:06:19Z</time>
      </trkpt>
      <trkpt lat="45.30501" lon="0.43476">
        <ele>163</ele>
        <time>2016-10-15T14:06:48Z</time>
      </trkpt>
      <trkpt lat="45.30471" lon="0.43492">
        <ele>161</ele>
        <time>2016-10-15T14:07:18Z</time>
      </trkpt>
      <trkpt lat="45.30466" lon="0.43549">
        <ele>152</ele>
        <time>2016-10-15T14:07:47Z</time>
      </trkpt>
      <trkpt lat="45.30464" lon="0.43526">
        <ele>145</ele>
        <time>2016-10-15T14:08:44Z</time>
      </trkpt>
      <trkpt lat="45.30446" lon="0.4348">
        <ele>146</ele>
        <time>2016-10-15T14:09:13Z</time>
      </trkpt>
      <trkpt lat="45.30452" lon="0.43432">
        <ele>144</ele>
        <time>2016-10-15T14:09:43Z</time>
      </trkpt>
      <trkpt lat="45.30467" lon="0.43372">
        <ele>146</ele>
        <time>2016-10-15T14:10:13Z</time>
      </trkpt>
      <trkpt lat="45.30483" lon="0.43322">
        <ele>147</ele>
        <time>2016-10-15T14:10:42Z</time>
      </trkpt>
      <trkpt lat="45.30496" lon="0.43263">
        <ele>144</ele>
        <time>2016-10-15T14:11:12Z</time>
      </trkpt>
      <trkpt lat="45.30515" lon="0.43216">
        <ele>143</ele>
        <time>2016-10-15T14:11:41Z</time>
      </trkpt>
      <trkpt lat="45.30532" lon="0.43155">
        <ele>138</ele>
        <time>2016-10-15T14:12:10Z</time>
      </trkpt>
      <trkpt lat="45.30556" lon="0.43118">
        <ele>139</ele>
        <time>2016-10-15T14:12:39Z</time>
      </trkpt>
      <trkpt lat="45.30579" lon="0.43079">
        <ele>143</ele>
        <time>2016-10-15T14:13:08Z</time>
      </trkpt>
      <trkpt lat="45.30599" lon="0.43035">
        <ele>146</ele>
        <time>2016-10-15T14:13:37Z</time>
      </trkpt>
      <trkpt lat="45.30612" lon="0.42986">
        <ele>135</ele>
        <time>2016-10-15T14:14:06Z</time>
      </trkpt>
      <trkpt lat="45.30624" lon="0.42931">
        <ele>131</ele>
        <time>2016-10-15T14:14:36Z</time>
      </trkpt>
      <trkpt lat="45.30624" lon="0.42901">
        <ele>126</ele>
        <time>2016-10-15T14:15:05Z</time>
      </trkpt>
      <trkpt lat="45.30604" lon="0.42884">
        <ele>129</ele>
        <time>2016-10-15T14:15:34Z</time>
      </trkpt>
      <trkpt lat="45.30572" lon="0.4287">
        <ele>124</ele>
        <time>2016-10-15T14:16:03Z</time>
      </trkpt>
      <trkpt lat="45.30532" lon="0.42847">
        <ele>128</ele>
        <time>2016-10-15T14:16:32Z</time>
      </trkpt>
      <trkpt lat="45.305" lon="0.42817">
        <ele>131</ele>
        <time>2016-10-15T14:17:01Z</time>
      </trkpt>
      <trkpt lat="45.30478" lon="0.42787">
        <ele>130</ele>
        <time>2016-10-15T14:17:31Z</time>
      </trkpt>
      <trkpt lat="45.3045" lon="0.42746">
        <ele>128</ele>
        <time>2016-10-15T14:18:00Z</time>
      </trkpt>
      <trkpt lat="45.30414" lon="0.42711">
        <ele>123</ele>
        <time>2016-10-15T14:18:29Z</time>
      </trkpt>
      <trkpt lat="45.30372" lon="0.42687">
        <ele>119</ele>
        <time>2016-10-15T14:18:59Z</time>
      </trkpt>
      <trkpt lat="45.30341" lon="0.42653">
        <ele>116</ele>
        <time>2016-10-15T14:19:28Z</time>
      </trkpt>
      <trkpt lat="45.30325" lon="0.426">
        <ele>117</ele>
        <time>2016-10-15T14:19:57Z</time>
      </trkpt>
      <trkpt lat="45.30299" lon="0.42557">
        <ele>114</ele>
        <time>2016-10-15T14:20:26Z</time>
      </trkpt>
      <trkpt lat="45.30274" lon="0.42515">
        <ele>114</ele>
        <time>2016-10-15T14:20:55Z</time>
      </trkpt>
      <trkpt lat="45.3027" lon="0.4249">
        <ele>113</ele>
        <time>2016-10-15T14:21:25Z</time>
      </trkpt>
      <trkpt lat="45.30273" lon="0.42449">
        <ele>112</ele>
        <time>2016-10-15T14:21:54Z</time>
      </trkpt>
      <trkpt lat="45.30276" lon="0.42401">
        <ele>114</ele>
        <time>2016-10-15T14:22:23Z</time>
      </trkpt>
      <trkpt lat="45.30273" lon="0.42353">
        <ele>119</ele>
        <time>2016-10-15T14:22:52Z</time>
      </trkpt>
      <trkpt lat="45.30259" lon="0.42307">
        <ele>125</ele>
        <time>2016-10-15T14:23:22Z</time>
      </trkpt>
      <trkpt lat="45.30239" lon="0.42257">
        <ele>123</ele>
        <time>2016-10-15T14:23:51Z</time>
      </trkpt>
      <trkpt lat="45.30215" lon="0.42207">
        <ele>120</ele>
        <time>2016-10-15T14:24:21Z</time>
      </trkpt>
      <trkpt lat="45.30199" lon="0.42152">
        <ele>121</ele>
        <time>2016-10-15T14:24:50Z</time>
      </trkpt>
      <trkpt lat="45.30178" lon="0.42103">
        <ele>122</ele>
        <time>2016-10-15T14:25:19Z</time>
      </trkpt>
      <trkpt lat="45.30152" lon="0.42053">
        <ele>119</ele>
        <time>2016-10-15T14:25:49Z</time>
      </trkpt>
      <trkpt lat="45.30128" lon="0.42007">
        <ele>120</ele>
        <time>2016-10-15T14:26:18Z</time>
      </trkpt>
      <trkpt lat="45.30106" lon="0.41958">
        <ele>118</ele>
        <time>2016-10-15T14:26:47Z</time>
      </trkpt>
      <trkpt lat="45.30071" lon="0.41921">
        <ele>117</ele>
        <time>2016-10-15T14:27:17Z</time>
      </trkpt>
      <trkpt lat="45.30027" lon="0.41892">
        <ele>107</ele>
        <time>2016-10-15T14:27:46Z</time>
      </trkpt>
      <trkpt lat="45.30006" lon="0.41859">
        <ele>108</ele>
        <time>2016-10-15T14:28:15Z</time>
      </trkpt>
      <trkpt lat="45.29987" lon="0.41817">
        <ele>108</ele>
        <time>2016-10-15T14:28:44Z</time>
      </trkpt>
      <trkpt lat="45.29969" lon="0.41764">
        <ele>113</ele>
        <time>2016-10-15T14:29:14Z</time>
      </trkpt>
      <trkpt lat="45.29948" lon="0.41723">
        <ele>105</ele>
        <time>2016-10-15T14:29:43Z</time>
      </trkpt>
      <trkpt lat="45.29922" lon="0.4167">
        <ele>106</ele>
        <time>2016-10-15T14:30:13Z</time>
      </trkpt>
      <trkpt lat="45.29908" lon="0.41624">
        <ele>108</ele>
        <time>2016-10-15T14:30:42Z</time>
      </trkpt>
      <trkpt lat="45.29882" lon="0.41582">
        <ele>106</ele>
        <time>2016-10-15T14:31:12Z</time>
      </trkpt>
      <trkpt lat="45.29854" lon="0.4154">
        <ele>104</ele>
        <time>2016-10-15T14:31:41Z</time>
      </trkpt>
      <trkpt lat="45.29833" lon="0.41498">
        <ele>104</ele>
        <time>2016-10-15T14:32:11Z</time>
      </trkpt>
      <trkpt lat="45.29811" lon="0.41461">
        <ele>108</ele>
        <time>2016-10-15T14:32:40Z</time>
      </trkpt>
      <trkpt lat="45.2979" lon="0.4141">
        <ele>106</ele>
        <time>2016-10-15T14:33:10Z</time>
      </trkpt>
      <trkpt lat="45.29773" lon="0.41389">
        <ele>107</ele>
        <time>2016-10-15T14:33:39Z</time>
      </trkpt>
      <trkpt lat="45.29762" lon="0.41348">
        <ele>110</ele>
        <time>2016-10-15T14:34:09Z</time>
      </trkpt>
      <trkpt lat="45.29734" lon="0.41297">
        <ele>109</ele>
        <time>2016-10-15T14:34:38Z</time>
      </trkpt>
      <trkpt lat="45.297" lon="0.41262">
        <ele>106</ele>
        <time>2016-10-15T14:35:07Z</time>
      </trkpt>
      <trkpt lat="45.29659" lon="0.41232">
        <ele>104</ele>
        <time>2016-10-15T14:35:37Z</time>
      </trkpt>
      <trkpt lat="45.29637" lon="0.41242">
        <ele>112</ele>
        <time>2016-10-15T14:36:06Z</time>
      </trkpt>
      <trkpt lat="45.296" lon="0.41274">
        <ele>106</ele>
        <time>2016-10-15T14:36:35Z</time>
      </trkpt>
      <trkpt lat="45.29574" lon="0.41242">
        <ele>104</ele>
        <time>2016-10-15T14:37:04Z</time>
      </trkpt>
      <trkpt lat="45.29557" lon="0.41198">
        <ele>100</ele>
        <time>2016-10-15T14:37:33Z</time>
      </trkpt>
      <trkpt lat="45.29534" lon="0.41149">
        <ele>98</ele>
        <time>2016-10-15T14:38:03Z</time>
      </trkpt>
      <trkpt lat="45.2951" lon="0.41112">
        <ele>102</ele>
        <time>2016-10-15T14:38:32Z</time>
      </trkpt>
      <trkpt lat="45.2947" lon="0.41086">
        <ele>96</ele>
        <time>2016-10-15T14:39:01Z</time>
      </trkpt>
      <trkpt lat="45.29441" lon="0.41063">
        <ele>94</ele>
        <time>2016-10-15T14:39:31Z</time>
      </trkpt>
      <trkpt lat="45.2943" lon="0.41048">
        <ele>95</ele>
        <time>2016-10-15T14:39:52Z</time>
      </trkpt>
      <trkpt lat="45.2943" lon="0.41048">
        <ele>95</ele>
        <time>2016-10-15T14:39:52Z</time>
      </trkpt>
    </trkseg>
  </trk>
</gpx>